Time;durP1;ratioP1;P1;durP2;ratioP2;P2;SDS_P1;SDS_P2;PMS_P1;PMS_P2;Temp;Humidity;BMP_temperature;BMP_pressure;BME280_temperature;BME280_humidity;BME280_pressure;Samples;Min_cycle;Max_cycle;Signal;HPM_P1;HPM_P2
2022/11/29 00:00:47;;;;;;;1999.90;999.90;;;5.40;99.90;;;;;;5073448;28;20471;-65
2022/11/29 00:03:14;;;;;;;1999.90;999.90;;;5.30;99.90;;;;;;5075978;28;20492;-65
2022/11/29 00:05:41;;;;;;;1999.90;999.90;;;5.40;99.90;;;;;;5072928;28;20460;-64
2022/11/29 00:08:08;;;;;;;1999.90;999.90;;;5.40;99.90;;;;;;5073782;28;22431;-65
2022/11/29 00:10:36;;;;;;;1999.90;999.90;;;5.30;99.90;;;;;;5076193;28;20465;-63
2022/11/29 00:13:03;;;;;;;1999.90;999.90;;;5.40;99.90;;;;;;5076650;28;20476;-65
2022/11/29 00:15:35;;;;;;;1999.90;999.90;;;5.40;99.90;;;;;;5074444;28;20456;-66
2022/11/29 00:18:02;;;;;;;1999.90;999.90;;;5.40;99.90;;;;;;5076606;28;20464;-65
2022/11/29 00:20:29;;;;;;;1999.90;999.90;;;5.40;99.90;;;;;;5076853;28;20464;-65
2022/11/29 00:22:55;;;;;;;1999.90;999.90;;;5.50;99.90;;;;;;5076598;28;20496;-64
2022/11/29 00:25:22;;;;;;;1999.90;999.90;;;5.50;99.90;;;;;;5074800;28;20460;-66
2022/11/29 00:27:50;;;;;;;1999.90;999.90;;;5.60;99.90;;;;;;5075647;28;20467;-66
2022/11/29 00:30:17;;;;;;;1999.90;999.90;;;5.60;99.90;;;;;;5075423;28;20460;-64
2022/11/29 00:32:45;;;;;;;1999.90;999.90;;;5.60;99.90;;;;;;5075604;28;20472;-64
2022/11/29 00:35:12;;;;;;;1999.90;999.90;;;5.60;99.90;;;;;;5074974;28;20459;-64
2022/11/29 00:37:39;;;;;;;1999.90;999.90;;;5.60;99.90;;;;;;5075820;28;20460;-65
2022/11/29 00:40:06;;;;;;;1999.90;999.90;;;5.50;99.90;;;;;;5075849;28;20488;-65
2022/11/29 00:42:33;;;;;;;1999.90;999.90;;;5.50;99.90;;;;;;5075398;28;20484;-65
2022/11/29 00:45:00;;;;;;;1999.90;999.90;;;5.40;99.90;;;;;;5074257;28;20457;-66
2022/11/29 00:47:27;;;;;;;1999.90;999.90;;;5.50;99.90;;;;;;5078268;28;20467;-67
2022/11/29 00:49:55;;;;;;;1999.90;999.90;;;5.60;99.90;;;;;;5075205;28;20464;-65
2022/11/29 00:52:22;;;;;;;1999.90;999.90;;;5.80;99.90;;;;;;5074981;28;20463;-64
2022/11/29 00:54:49;;;;;;;1999.90;999.90;;;6.00;99.90;;;;;;5074175;28;20487;-64
2022/11/29 00:57:15;;;;;;;1999.90;999.90;;;5.90;99.90;;;;;;5076926;28;20456;-65
2022/11/29 00:59:42;;;;;;;1999.90;999.90;;;5.70;99.90;;;;;;5074891;28;20456;-65
2022/11/29 01:02:09;;;;;;;1999.90;999.90;;;5.60;99.90;;;;;;5076103;28;20464;-63
2022/11/29 01:04:36;;;;;;;1999.90;999.90;;;5.60;99.90;;;;;;5073343;28;20703;-65
2022/11/29 01:07:04;;;;;;;1999.90;999.90;;;5.50;99.90;;;;;;5075362;28;20467;-66
2022/11/29 01:09:30;;;;;;;1999.90;999.90;;;5.60;99.90;;;;;;5074771;28;21038;-65
2022/11/29 01:11:57;;;;;;;1999.90;999.90;;;5.60;99.90;;;;;;5074671;28;20820;-65
2022/11/29 01:14:24;;;;;;;1999.90;999.90;;;5.70;99.90;;;;;;5074077;28;21018;-65
2022/11/29 01:16:51;;;;;;;1999.90;999.90;;;5.60;99.90;;;;;;5075079;28;20460;-64
2022/11/29 01:19:17;;;;;;;1999.90;999.90;;;5.60;99.90;;;;;;5075420;28;20459;-67
2022/11/29 01:21:44;;;;;;;1999.90;999.90;;;5.60;99.90;;;;;;5075339;28;20456;-64
2022/11/29 01:24:12;;;;;;;1999.90;999.90;;;5.60;99.90;;;;;;5075254;28;20484;-64
2022/11/29 01:26:39;;;;;;;1999.90;999.90;;;5.60;99.90;;;;;;5073664;28;20467;-65
2022/11/29 01:29:06;;;;;;;1999.90;999.90;;;5.70;99.90;;;;;;5074990;28;20467;-65
2022/11/29 01:31:35;;;;;;;1999.90;999.90;;;5.70;99.90;;;;;;5074856;28;20453;-66
2022/11/29 01:34:04;;;;;;;1999.90;999.90;;;5.70;99.90;;;;;;5074012;28;20485;-64
2022/11/29 01:36:31;;;;;;;1999.90;999.90;;;5.70;99.90;;;;;;5073792;28;20517;-65
2022/11/29 01:38:59;;;;;;;1999.90;999.90;;;5.70;99.90;;;;;;5074064;28;20460;-63
2022/11/29 01:41:29;;;;;;;1999.90;999.90;;;6.00;99.90;;;;;;5076264;28;20514;-65
2022/11/29 01:44:00;;;;;;;1999.90;999.90;;;5.80;99.90;;;;;;5073532;28;20480;-64
2022/11/29 01:46:28;;;;;;;1999.90;999.90;;;5.70;99.90;;;;;;5074471;28;20448;-64
2022/11/29 01:48:58;;;;;;;1999.90;999.90;;;5.60;99.90;;;;;;5074797;28;20460;-65
2022/11/29 01:51:28;;;;;;;1999.90;999.90;;;5.70;99.90;;;;;;5075878;28;20466;-65
2022/11/29 01:53:55;;;;;;;1999.90;999.90;;;5.70;99.90;;;;;;5073446;28;20492;-65
2022/11/29 01:56:23;;;;;;;1999.90;999.90;;;5.80;99.90;;;;;;5072801;28;20480;-64
2022/11/29 01:58:51;;;;;;;1999.90;999.90;;;5.60;99.90;;;;;;5074576;28;20465;-65
2022/11/29 02:01:18;;;;;;;1999.90;999.90;;;5.50;99.90;;;;;;5074246;28;21014;-65
2022/11/29 02:03:45;;;;;;;1999.90;999.90;;;5.50;99.90;;;;;;5075022;28;20834;-65
2022/11/29 02:06:12;;;;;;;1999.90;999.90;;;5.50;99.90;;;;;;5072685;28;20460;-66
2022/11/29 02:08:40;;;;;;;1999.90;999.90;;;5.50;99.90;;;;;;5075315;28;20996;-64
2022/11/29 02:11:39;;;;;;;1999.90;999.90;;;5.60;99.90;;;;;;5073969;28;20456;-64
2022/11/29 02:14:28;;;;;;;1999.90;999.90;;;5.80;99.90;;;;;;5067955;28;20497;-65
2022/11/29 02:17:03;;;;;;;1999.90;999.90;;;5.70;99.90;;;;;;5073838;28;20456;-64
2022/11/29 02:20:05;;;;;;;1999.90;999.90;;;5.50;99.90;;;;;;5074181;28;20456;-65
2022/11/29 02:22:41;;;;;;;1999.90;999.90;;;5.40;99.90;;;;;;5074592;28;20545;-64
2022/11/29 02:25:25;;;;;;;1999.90;999.90;;;5.70;99.90;;;;;;5073451;28;20440;-65
2022/11/29 02:28:33;;;;;;;1999.90;999.90;;;5.80;99.90;;;;;;5072938;28;20833;-65
2022/11/29 02:31:23;;;;;;;1999.90;999.90;;;5.80;99.90;;;;;;5073689;28;20472;-64
2022/11/29 02:34:15;;;;;;;1999.90;999.90;;;5.80;99.90;;;;;;5072688;28;21976;-65
2022/11/29 02:36:59;;;;;;;1999.90;999.90;;;5.70;99.90;;;;;;5073479;28;21063;-64
2022/11/29 02:39:49;;;;;;;1999.90;999.90;;;5.80;99.90;;;;;;5074354;28;20478;-64
2022/11/29 02:42:49;;;;;;;1999.90;999.90;;;5.60;99.90;;;;;;5074253;28;20464;-64
2022/11/29 02:45:35;;;;;;;1999.90;999.90;;;5.70;99.90;;;;;;5074493;28;20479;-65
2022/11/29 02:48:23;;;;;;;1999.90;999.90;;;5.70;99.90;;;;;;5073515;28;20464;-64
2022/11/29 02:50:58;;;;;;;1999.90;999.90;;;5.70;99.90;;;;;;5073477;28;20441;-65
2022/11/29 02:53:30;;;;;;;1999.90;999.90;;;5.50;99.90;;;;;;5073973;28;20475;-65
2022/11/29 02:56:03;;;;;;;1999.90;999.90;;;5.60;99.90;;;;;;5072342;28;21872;-64
2022/11/29 02:58:36;;;;;;;1999.90;999.90;;;5.60;99.90;;;;;;5074557;28;20467;-65
2022/11/29 03:01:12;;;;;;;1999.90;999.90;;;5.50;99.90;;;;;;5074186;28;20467;-64
2022/11/29 03:03:44;;;;;;;1999.90;999.90;;;5.80;99.90;;;;;;5083383;28;20486;-66
2022/11/29 03:06:22;;;;;;;1999.90;999.90;;;5.60;99.90;;;;;;5087820;28;20452;-65
2022/11/29 03:08:56;;;;;;;1999.90;999.90;;;5.60;99.90;;;;;;5080770;28;20460;-64
2022/11/29 03:11:32;;;;;;;1999.90;999.90;;;5.60;99.90;;;;;;5074288;28;20464;-64
2022/11/29 03:14:13;;;;;;;1999.90;999.90;;;5.60;99.90;;;;;;5072237;28;20490;-65
2022/11/29 03:16:46;;;;;;;1999.90;999.90;;;5.50;99.90;;;;;;5071796;28;20461;-64
2022/11/29 03:19:37;;;;;;;1999.90;999.90;;;5.30;99.90;;;;;;5074087;28;20468;-65
2022/11/29 03:22:11;;;;;;;1999.90;999.90;;;5.30;99.90;;;;;;5063153;28;20460;-66
2022/11/29 03:24:46;;;;;;;1999.90;999.90;;;5.20;99.90;;;;;;5076273;28;20483;-65
2022/11/29 03:27:20;;;;;;;1999.90;999.90;;;5.20;99.90;;;;;;5078075;28;20464;-67
2022/11/29 03:29:56;;;;;;;1999.90;999.90;;;5.40;99.90;;;;;;5077508;28;20465;-63
2022/11/29 03:32:29;;;;;;;1999.90;999.90;;;5.70;99.90;;;;;;5077309;28;20466;-64
2022/11/29 03:35:02;;;;;;;1999.90;999.90;;;5.50;99.90;;;;;;5076595;28;20468;-65
2022/11/29 03:37:38;;;;;;;1999.90;999.90;;;5.50;99.90;;;;;;5079310;28;20460;-65
2022/11/29 03:40:08;;;;;;;1999.90;999.90;;;5.50;99.90;;;;;;5076181;28;20460;-64
2022/11/29 03:42:42;;;;;;;1999.90;999.90;;;5.60;99.90;;;;;;5076752;28;20480;-65
2022/11/29 03:45:16;;;;;;;1999.90;999.90;;;5.60;99.90;;;;;;5077352;28;20999;-65
2022/11/29 03:47:56;;;;;;;1999.90;999.90;;;5.60;99.90;;;;;;5077433;28;20460;-65
2022/11/29 03:50:27;;;;;;;1999.90;999.90;;;5.50;99.90;;;;;;5078124;28;20456;-64
2022/11/29 03:53:01;;;;;;;1999.90;999.90;;;5.50;99.90;;;;;;5075778;28;20613;-65
2022/11/29 03:55:46;;;;;;;1999.90;999.90;;;5.50;99.90;;;;;;5076403;28;20480;-66
2022/11/29 03:58:29;;;;;;;1999.90;999.90;;;5.40;99.90;;;;;;5076212;28;20471;-65
2022/11/29 04:01:26;;;;;;;1999.90;999.90;;;5.60;99.90;;;;;;5077742;28;20460;-64
2022/11/29 04:04:26;;;;;;;1999.90;999.90;;;5.60;99.90;;;;;;5076132;28;20472;-65
2022/11/29 04:07:06;;;;;;;1999.90;999.90;;;5.50;99.90;;;;;;5049617;28;20452;-65
2022/11/29 04:10:01;;;;;;;1999.90;999.90;;;5.40;99.90;;;;;;5075971;28;20467;-65
2022/11/29 04:13:00;;;;;;;1999.90;999.90;;;5.40;99.90;;;;;;5075790;28;20453;-65
2022/11/29 04:16:14;;;;;;;1999.90;999.90;;;5.40;99.90;;;;;;5075268;28;21035;-65
2022/11/29 04:19:09;;;;;;;1999.90;999.90;;;5.50;99.90;;;;;;5077354;28;20456;-64
2022/11/29 04:22:08;;;;;;;1999.90;999.90;;;5.70;99.90;;;;;;5073056;28;20519;-64
2022/11/29 04:25:13;;;;;;;1999.90;999.90;;;5.60;99.90;;;;;;5050326;28;20564;-64
2022/11/29 04:27:50;;;;;;;1999.90;999.90;;;5.40;99.90;;;;;;5076786;28;20459;-64
2022/11/29 04:30:20;;;;;;;1999.90;999.90;;;5.30;99.90;;;;;;5074261;28;20915;-65
2022/11/29 04:33:13;;;;;;;1999.90;999.90;;;5.40;99.90;;;;;;5077380;28;20849;-66
2022/11/29 04:35:56;;;;;;;1999.90;999.90;;;5.30;99.90;;;;;;5075204;28;20499;-64
2022/11/29 04:38:45;;;;;;;1999.90;999.90;;;5.30;99.90;;;;;;5078505;28;21426;-65
2022/11/29 04:41:41;;;;;;;1999.90;999.90;;;5.30;99.90;;;;;;5071711;28;20472;-67
2022/11/29 04:44:31;;;;;;;1999.90;999.90;;;5.30;99.90;;;;;;5075090;28;21125;-64
2022/11/29 04:47:28;;;;;;;1999.90;999.90;;;5.40;99.90;;;;;;5076011;28;20469;-63
2022/11/29 04:50:12;;;;;;;1999.90;999.90;;;5.30;99.90;;;;;;5074133;28;20483;-65
2022/11/29 04:52:55;;;;;;;1999.90;999.90;;;5.20;99.90;;;;;;5074950;28;20488;-64
2022/11/29 04:55:35;;;;;;;1999.90;999.90;;;5.20;99.90;;;;;;5081309;28;20476;-65
2022/11/29 04:58:13;;;;;;;1999.90;999.90;;;5.30;99.90;;;;;;5084266;28;20476;-65
2022/11/29 05:00:50;;;;;;;1999.90;999.90;;;5.40;99.90;;;;;;5084997;28;20483;-64
2022/11/29 05:03:25;;;;;;;1999.90;999.90;;;5.40;99.90;;;;;;5080365;28;20484;-64
2022/11/29 05:05:58;;;;;;;1999.90;999.90;;;5.40;99.90;;;;;;5077070;28;20999;-65
2022/11/29 05:08:38;;;;;;;1999.90;999.90;;;5.50;99.90;;;;;;5077934;28;20460;-65
2022/11/29 05:11:14;;;;;;;1999.90;999.90;;;5.50;99.90;;;;;;5074675;28;22334;-65
2022/11/29 05:13:48;;;;;;;1999.90;999.90;;;5.50;99.90;;;;;;5076614;28;20479;-63
2022/11/29 05:16:37;;;;;;;1999.90;999.90;;;5.30;99.90;;;;;;5073712;28;20448;-65
2022/11/29 05:19:23;;;;;;;1999.90;999.90;;;5.40;99.90;;;;;;5075616;28;20464;-65
2022/11/29 05:21:59;;;;;;;1999.90;999.90;;;5.40;99.90;;;;;;5073341;28;22310;-66
2022/11/29 05:24:42;;;;;;;1999.90;999.90;;;5.30;99.90;;;;;;5076952;28;20488;-64
2022/11/29 05:27:17;;;;;;;1999.90;999.90;;;5.30;99.90;;;;;;5075862;28;20484;-64
2022/11/29 05:29:54;;;;;;;1999.90;999.90;;;5.60;99.90;;;;;;5077032;28;20462;-64
2022/11/29 05:32:31;;;;;;;1999.90;999.90;;;5.40;99.90;;;;;;5073724;28;20458;-64
2022/11/29 05:35:34;;;;;;;1999.90;999.90;;;5.20;99.90;;;;;;5072933;28;20513;-66
2022/11/29 05:38:13;;;;;;;1999.90;999.90;;;5.30;99.90;;;;;;5070964;28;20464;-64
2022/11/29 05:40:46;;;;;;;1999.90;999.90;;;5.30;99.90;;;;;;5076676;28;20991;-66
2022/11/29 05:43:27;;;;;;;1999.90;999.90;;;5.30;99.90;;;;;;5073902;28;20473;-67
2022/11/29 05:46:02;;;;;;;1999.90;999.90;;;5.30;99.90;;;;;;5076600;28;21727;-65
2022/11/29 05:48:43;;;;;;;1999.90;999.90;;;5.30;99.90;;;;;;5073419;28;20470;-64
2022/11/29 05:51:20;;;;;;;1999.90;999.90;;;5.20;99.90;;;;;;5072427;28;21026;-66
2022/11/29 05:53:57;;;;;;;1999.90;999.90;;;5.30;99.90;;;;;;5074884;28;20488;-64
2022/11/29 05:56:29;;;;;;;1999.90;999.90;;;5.30;99.90;;;;;;5075003;28;20468;-65
2022/11/29 05:59:00;;;;;;;1999.90;999.90;;;5.20;99.90;;;;;;5077748;28;20517;-64
2022/11/29 06:01:34;;;;;;;1999.90;999.90;;;5.30;99.90;;;;;;5076521;28;20471;-64
2022/11/29 06:04:06;;;;;;;1999.90;999.90;;;5.10;99.90;;;;;;5076629;28;20472;-64
2022/11/29 06:06:40;;;;;;;1999.90;999.90;;;5.20;99.90;;;;;;5077713;28;20467;-65
2022/11/29 06:09:13;;;;;;;1999.90;999.90;;;5.20;99.90;;;;;;5074653;28;20994;-65
2022/11/29 06:11:44;;;;;;;1999.90;999.90;;;5.10;99.90;;;;;;5073787;28;20456;-66
2022/11/29 06:14:25;;;;;;;1999.90;999.90;;;5.00;99.90;;;;;;5073782;28;20988;-64
2022/11/29 06:17:08;;;;;;;1999.90;999.90;;;5.00;99.90;;;;;;5074454;28;20464;-63
2022/11/29 06:20:03;;;;;;;1999.90;999.90;;;5.00;99.90;;;;;;5073189;28;20506;-65
2022/11/29 06:22:51;;;;;;;1999.90;999.90;;;5.00;99.90;;;;;;5074058;28;20487;-65
2022/11/29 06:25:34;;;;;;;1999.90;999.90;;;5.20;99.90;;;;;;5072843;28;20460;-67
2022/11/29 06:28:27;;;;;;;1999.90;999.90;;;5.30;99.90;;;;;;5072928;28;20492;-63
2022/11/29 06:31:00;;;;;;;1999.90;999.90;;;5.30;99.90;;;;;;5073828;28;20467;-65
2022/11/29 06:33:37;;;;;;;1999.90;999.90;;;5.20;99.90;;;;;;5072844;28;20485;-65
2022/11/29 06:36:27;;;;;;;1999.90;999.90;;;5.10;99.90;;;;;;5074172;28;20474;-66
2022/11/29 06:38:54;;;;;;;1999.90;999.90;;;5.00;99.90;;;;;;5067475;28;20460;-65
2022/11/29 06:41:23;;;;;;;1999.90;999.90;;;5.00;99.90;;;;;;5072549;28;20492;-65
2022/11/29 06:43:51;;;;;;;1999.90;999.90;;;5.00;99.90;;;;;;5073579;28;20476;-66
2022/11/29 06:46:27;;;;;;;1999.90;999.90;;;5.00;99.90;;;;;;5074592;28;20460;-65
2022/11/29 06:49:02;;;;;;;1999.90;999.90;;;4.90;99.90;;;;;;5072425;28;20465;-65
2022/11/29 06:51:33;;;;;;;1999.90;999.90;;;4.90;99.90;;;;;;5073640;28;20463;-64
2022/11/29 06:54:09;;;;;;;1999.90;999.90;;;4.90;99.90;;;;;;5078914;28;20966;-65
2022/11/29 06:56:41;;;;;;;1999.90;999.90;;;4.90;99.90;;;;;;5090814;28;20469;-66
2022/11/29 06:59:22;;;;;;;1999.90;999.90;;;5.00;99.90;;;;;;5088627;28;20957;-64
2022/11/29 07:01:56;;;;;;;1999.90;999.90;;;5.10;99.90;;;;;;5087213;28;20886;-65
2022/11/29 07:04:44;;;;;;;1999.90;999.90;;;5.10;99.90;;;;;;5094836;28;20452;-63
2022/11/29 07:07:14;;;;;;;1999.90;999.90;;;5.10;99.90;;;;;;5095240;28;20421;-65
2022/11/29 07:09:42;;;;;;;1999.90;999.90;;;5.00;99.90;;;;;;5094265;28;20440;-64
2022/11/29 07:12:10;;;;;;;1999.90;999.90;;;5.00;99.90;;;;;;5095288;28;20440;-64
2022/11/29 07:14:37;;;;;;;1999.90;999.90;;;4.90;99.90;;;;;;5093422;28;20483;-66
2022/11/29 07:17:16;;;;;;;1999.90;999.90;;;4.90;99.90;;;;;;5079820;28;20445;-66
2022/11/29 07:19:54;;;;;;;1999.90;999.90;;;4.90;99.90;;;;;;5074746;28;20451;-66
2022/11/29 07:22:36;;;;;;;1999.90;999.90;;;4.90;99.90;;;;;;5074723;28;20429;-65
2022/11/29 07:25:13;;;;;;;1999.90;999.90;;;5.00;99.90;;;;;;5077091;28;20464;-66
2022/11/29 07:27:47;;;;;;;1999.90;999.90;;;5.00;99.90;;;;;;5087262;28;20511;-65
2022/11/29 07:30:18;;;;;;;1999.90;999.90;;;5.00;99.90;;;;;;5093365;28;20463;-66
2022/11/29 07:32:58;;;;;;;1999.90;999.90;;;5.10;99.90;;;;;;5090947;28;20476;-65
2022/11/29 07:35:32;;;;;;;1999.90;999.90;;;5.40;99.90;;;;;;5091761;28;20476;-64
2022/11/29 07:38:08;;;;;;;1999.90;999.90;;;5.40;99.90;;;;;;5081999;28;20465;-65
2022/11/29 07:40:41;;;;;;;1999.90;999.90;;;5.30;99.90;;;;;;5085732;28;20485;-65
2022/11/29 07:43:26;;;;;;;1999.90;999.90;;;5.30;99.90;;;;;;5083691;28;20480;-65
2022/11/29 07:45:54;;;;;;;1999.90;999.90;;;5.20;99.90;;;;;;5083647;28;20452;-65
2022/11/29 07:48:21;;;;;;;1999.90;999.90;;;5.10;99.90;;;;;;5087893;28;20464;-66
2022/11/29 07:50:49;;;;;;;1999.90;999.90;;;5.10;99.90;;;;;;5085006;28;20460;-65
2022/11/29 07:53:17;;;;;;;1999.90;999.90;;;5.10;99.90;;;;;;5091889;28;20487;-65
2022/11/29 07:55:45;;;;;;;1999.90;999.90;;;5.10;99.90;;;;;;5085808;28;20472;-65
2022/11/29 07:58:12;;;;;;;1999.90;999.90;;;5.20;99.90;;;;;;5091177;28;20968;-65
2022/11/29 08:00:40;;;;;;;1999.90;999.90;;;5.20;99.90;;;;;;5088004;28;20456;-64
2022/11/29 08:03:07;;;;;;;1999.90;999.90;;;5.30;99.90;;;;;;5085120;28;20488;-65
2022/11/29 08:05:34;;;;;;;1999.90;999.90;;;5.30;99.90;;;;;;5086193;28;20459;-64
2022/11/29 08:08:03;;;;;;;1999.90;999.90;;;5.30;99.90;;;;;;5084360;28;20461;-65
2022/11/29 08:10:30;;;;;;;1999.90;999.90;;;5.30;99.90;;;;;;5088967;28;21192;-66
2022/11/29 08:12:57;;;;;;;1999.90;999.90;;;5.30;99.90;;;;;;5090228;28;20481;-66
2022/11/29 08:15:25;;;;;;;1999.90;999.90;;;5.60;99.90;;;;;;5082847;28;20615;-64
2022/11/29 08:17:52;;;;;;;1999.90;999.90;;;5.50;99.90;;;;;;5083299;28;20469;-65
2022/11/29 08:20:20;;;;;;;1999.90;999.90;;;5.50;99.90;;;;;;5076632;28;20836;-65
2022/11/29 08:22:54;;;;;;;1999.90;999.90;;;5.40;99.90;;;;;;5085461;28;20514;-65
2022/11/29 08:25:22;;;;;;;1999.90;999.90;;;5.40;99.90;;;;;;5080045;28;20455;-65
2022/11/29 08:27:50;;;;;;;1999.90;999.90;;;5.40;99.90;;;;;;5083075;28;20468;-66
2022/11/29 08:30:21;;;;;;;1999.90;999.90;;;5.40;99.90;;;;;;5083639;28;20460;-66
2022/11/29 08:32:48;;;;;;;1999.90;999.90;;;5.40;99.90;;;;;;5081574;28;20485;-65
2022/11/29 08:35:15;;;;;;;1999.90;999.90;;;5.40;99.90;;;;;;5081803;28;20971;-65
2022/11/29 08:37:42;;;;;;;1999.90;999.90;;;5.40;99.90;;;;;;5081560;28;20448;-64
2022/11/29 08:40:10;;;;;;;1999.90;999.90;;;5.40;99.90;;;;;;5086089;28;20454;-64
2022/11/29 08:42:38;;;;;;;1999.90;999.90;;;5.40;99.90;;;;;;5079166;28;20486;-65
2022/11/29 08:45:06;;;;;;;1999.90;999.90;;;5.40;99.90;;;;;;5090357;28;20472;-65
2022/11/29 08:47:35;;;;;;;1999.90;999.90;;;5.40;99.90;;;;;;5078686;28;20468;-63
2022/11/29 08:50:02;;;;;;;1999.90;999.90;;;5.50;99.90;;;;;;5085989;28;20470;-65
2022/11/29 08:55:14;;;;;;;1999.90;999.90;;;5.50;99.90;;;;;;5082099;28;20480;-66
2022/11/29 08:57:43;;;;;;;1999.90;999.90;;;5.60;99.90;;;;;;5081637;28;20467;-65
2022/11/29 09:00:11;;;;;;;1999.90;999.90;;;5.70;99.90;;;;;;5080549;28;20460;-65
2022/11/29 09:02:37;;;;;;;1999.90;999.90;;;5.70;99.90;;;;;;5082944;28;20460;-65
2022/11/29 09:05:05;;;;;;;1999.90;999.90;;;5.80;99.90;;;;;;5080271;28;20839;-65
2022/11/29 09:07:32;;;;;;;1999.90;999.90;;;5.80;99.90;;;;;;5081552;28;20477;-65
2022/11/29 09:09:59;;;;;;;1999.90;999.90;;;5.90;99.90;;;;;;5083669;28;20465;-65
2022/11/29 09:12:26;;;;;;;1999.90;999.90;;;5.90;99.90;;;;;;5081185;28;20452;-65
2022/11/29 09:14:54;;;;;;;1999.90;999.90;;;5.90;99.90;;;;;;5092201;28;20440;-66
2022/11/29 09:17:21;;;;;;;1999.90;999.90;;;5.90;99.90;;;;;;5090967;28;20469;-65
2022/11/29 09:19:48;;;;;;;1999.90;999.90;;;6.00;99.90;;;;;;5088020;28;20463;-64
2022/11/29 09:22:14;;;;;;;1999.90;999.90;;;6.00;99.90;;;;;;5088129;28;20464;-66
2022/11/29 09:24:41;;;;;;;1999.90;999.90;;;5.90;99.90;;;;;;5088915;28;20491;-66
2022/11/29 09:27:08;;;;;;;1999.90;999.90;;;5.70;99.90;;;;;;5092823;28;20451;-65
2022/11/29 09:29:35;;;;;;;1999.90;999.90;;;5.80;99.90;;;;;;5090969;28;20456;-66
2022/11/29 09:32:03;;;;;;;1999.90;999.90;;;6.10;99.90;;;;;;5086260;28;20470;-66
2022/11/29 09:34:30;;;;;;;1999.90;999.90;;;6.20;99.90;;;;;;5092766;28;20460;-65
2022/11/29 09:36:56;;;;;;;1999.90;999.90;;;6.20;99.90;;;;;;5089425;28;20482;-65
2022/11/29 09:39:23;;;;;;;1999.90;999.90;;;6.20;99.90;;;;;;5080689;28;20460;-65
2022/11/29 09:42:43;;;;;;;1999.90;999.90;;;6.20;99.90;;;;;;5085239;28;20469;-65
2022/11/29 09:45:13;;;;;;;1999.90;999.90;;;6.20;99.90;;;;;;5059977;28;20464;-63
2022/11/29 09:48:06;;;;;;;1999.90;999.90;;;6.10;99.90;;;;;;5086898;28;20466;-63
2022/11/29 09:50:35;;;;;;;1999.90;999.90;;;6.00;99.90;;;;;;5085429;28;21147;-64
2022/11/29 09:53:16;;;;;;;1999.90;999.90;;;6.10;99.90;;;;;;5091554;28;20468;-65
2022/11/29 09:55:52;;;;;;;1999.90;999.90;;;6.10;99.90;;;;;;5090150;28;20468;-66
2022/11/29 09:58:25;;;;;;;1999.90;999.90;;;6.20;99.90;;;;;;5088180;28;20460;-66
2022/11/29 10:00:57;;;;;;;1999.90;999.90;;;6.20;99.90;;;;;;5087505;28;20444;-66
2022/11/29 10:03:29;;;;;;;1999.90;999.90;;;6.40;99.90;;;;;;5091324;28;20885;-66
2022/11/29 10:05:59;;;;;;;1999.90;999.90;;;6.50;99.90;;;;;;5091050;28;20443;-66
2022/11/29 10:08:32;;;;;;;1999.90;999.90;;;6.50;99.90;;;;;;5090340;28;20471;-66
2022/11/29 10:11:11;;;;;;;1999.90;999.90;;;6.50;99.90;;;;;;5092231;28;20444;-67
2022/11/29 10:13:43;;;;;;;1999.90;999.90;;;6.50;99.90;;;;;;5082866;28;20495;-66
2022/11/29 10:16:18;;;;;;;1999.90;999.90;;;6.50;99.90;;;;;;5091141;28;20556;-65
2022/11/29 10:18:50;;;;;;;1999.90;999.90;;;6.50;99.90;;;;;;5092170;28;20428;-66
2022/11/29 10:21:23;;;;;;;1999.90;999.90;;;6.50;99.90;;;;;;5091929;28;20932;-66
2022/11/29 10:23:52;;;;;;;1999.90;999.90;;;6.50;99.90;;;;;;5091703;28;20479;-66
2022/11/29 10:26:21;;;;;;;1999.90;999.90;;;6.60;99.90;;;;;;5090840;28;20456;-66
2022/11/29 10:28:48;;;;;;;1999.90;999.90;;;6.60;99.90;;;;;;5089241;28;20460;-65
2022/11/29 10:31:21;;;;;;;1999.90;999.90;;;6.80;99.90;;;;;;5084763;28;20467;-66
2022/11/29 10:33:49;;;;;;;1999.90;999.90;;;6.80;99.90;;;;;;5083169;28;20480;-66
2022/11/29 10:36:23;;;;;;;1999.90;999.90;;;7.00;99.90;;;;;;5083319;28;20480;-66
2022/11/29 10:38:51;;;;;;;1999.90;999.90;;;7.10;99.90;;;;;;5090427;28;20457;-67
2022/11/29 10:41:22;;;;;;;1999.90;999.90;;;7.10;99.90;;;;;;5085600;28;20464;-65
2022/11/29 10:43:50;;;;;;;1999.90;999.90;;;7.50;99.90;;;;;;5088049;28;20565;-65
2022/11/29 10:46:25;;;;;;;1999.90;999.90;;;7.30;99.90;;;;;;5083402;28;20468;-66
2022/11/29 10:48:54;;;;;;;1999.90;999.90;;;7.10;99.90;;;;;;5084104;28;20972;-66
2022/11/29 10:51:21;;;;;;;1999.90;999.90;;;7.10;99.90;;;;;;5087799;28;20460;-65
2022/11/29 10:53:53;;;;;;;1999.90;999.90;;;7.20;99.90;;;;;;5085062;28;20495;-66
2022/11/29 10:56:23;;;;;;;1999.90;999.90;;;7.20;99.90;;;;;;5087536;28;20464;-66
2022/11/29 10:59:03;;;;;;;1999.90;999.90;;;7.20;99.90;;;;;;5087739;28;20543;-65
2022/11/29 11:01:31;;;;;;;1999.90;999.90;;;7.10;99.90;;;;;;5090693;28;20839;-66
2022/11/29 11:04:03;;;;;;;1999.90;999.90;;;7.00;99.90;;;;;;5083650;28;21006;-66
2022/11/29 11:06:45;;;;;;;1999.90;999.90;;;7.00;99.90;;;;;;5084299;28;20452;-66
2022/11/29 11:09:18;;;;;;;1999.90;999.90;;;6.90;99.90;;;;;;5090093;28;20443;-66
2022/11/29 11:11:51;;;;;;;1999.90;999.90;;;6.90;99.90;;;;;;5091505;28;20506;-66
2022/11/29 11:14:20;;;;;;;1999.90;999.90;;;6.90;99.90;;;;;;5090026;28;20484;-66
2022/11/29 11:16:47;;;;;;;1999.90;999.90;;;6.80;99.90;;;;;;5088675;28;20491;-65
2022/11/29 11:19:32;;;;;;;1999.90;999.90;;;7.10;99.90;;;;;;5088979;28;20460;-66
2022/11/29 11:22:01;;;;;;;1999.90;999.90;;;6.90;99.90;;;;;;5086025;28;20965;-68
2022/11/29 11:24:30;;;;;;;1999.90;999.90;;;7.10;99.90;;;;;;5087560;28;20492;-66
2022/11/29 11:26:57;;;;;;;1999.90;999.90;;;7.30;99.90;;;;;;5083606;28;20466;-66
2022/11/29 11:29:28;;;;;;;1999.90;999.90;;;7.10;99.90;;;;;;5084836;28;20464;-67
2022/11/29 11:31:57;;;;;;;1999.90;999.90;;;7.00;99.90;;;;;;5092212;28;20437;-67
2022/11/29 11:34:30;;;;;;;1999.90;999.90;;;6.90;99.90;;;;;;5090605;28;20467;-67
2022/11/29 11:39:52;;;;;;;1999.90;999.90;;;6.90;99.90;;;;;;5128904;27;20593;-67
2022/11/29 11:42:38;;;;;;;1999.90;999.90;;;6.70;99.90;;;;;;5120734;27;20447;-65
2022/11/29 11:45:21;;;;;;;1999.90;999.90;;;6.60;99.90;;;;;;5132330;27;20439;-67
2022/11/29 11:47:51;;;;;;;1999.90;999.90;;;6.60;99.90;;;;;;5132559;27;20459;-67
2022/11/29 11:50:28;;;;;;;1999.90;999.90;;;6.60;99.90;;;;;;5122772;27;20450;-67
2022/11/29 11:52:57;;;;;;;1999.90;999.90;;;6.50;99.90;;;;;;5130081;27;20490;-67
2022/11/29 11:55:37;;;;;;;1999.90;999.90;;;6.70;99.90;;;;;;5117691;27;20456;-67
2022/11/29 11:58:18;;;;;;;1999.90;999.90;;;6.80;99.90;;;;;;5117624;28;20520;-67
2022/11/29 12:00:48;;;;;;;1999.90;999.90;;;6.80;99.90;;;;;;5130233;27;20422;-67
2022/11/29 12:03:39;;;;;;;1999.90;999.90;;;6.80;99.90;;;;;;5130026;27;20839;-67
2022/11/29 12:06:34;;;;;;;1999.90;999.90;;;6.90;99.90;;;;;;5121971;27;20538;-69
2022/11/29 12:09:05;;;;;;;1999.90;999.90;;;7.00;99.90;;;;;;5114446;28;20947;-66
2022/11/29 12:11:40;;;;;;;1999.90;999.90;;;7.30;99.90;;;;;;5118255;27;20951;-67
2022/11/29 12:14:11;;;;;;;1999.90;999.90;;;7.10;99.90;;;;;;5120956;27;20459;-67
2022/11/29 12:16:40;;;;;;;1999.90;999.90;;;7.00;99.90;;;;;;5128964;27;20453;-67
2022/11/29 12:19:16;;;;;;;1999.90;999.90;;;6.90;99.90;;;;;;5129345;27;20586;-67
2022/11/29 12:21:47;;;;;;;1999.90;999.90;;;6.80;99.90;;;;;;5129851;27;20442;-67
2022/11/29 12:24:22;;;;;;;1999.90;999.90;;;6.70;99.90;;;;;;5130079;27;20894;-67
2022/11/29 12:26:53;;;;;;;1999.90;999.90;;;6.80;99.90;;;;;;5122146;27;20985;-67
2022/11/29 12:29:22;;;;;;;1999.90;999.90;;;6.80;99.90;;;;;;5121611;27;20435;-67
2022/11/29 12:32:02;;;;;;;1999.90;999.90;;;6.80;99.90;;;;;;5129720;27;20442;-67
2022/11/29 12:34:47;;;;;;;1999.90;999.90;;;6.80;99.90;;;;;;5128443;27;21205;-64
2022/11/29 12:37:21;;;;;;;1999.90;999.90;;;6.70;99.90;;;;;;5129864;27;20427;-68
2022/11/29 12:39:57;;;;;;;1999.90;999.90;;;6.70;99.90;;;;;;5124580;27;20471;-68
2022/11/29 12:42:39;;;;;;;1999.90;999.90;;;6.60;99.90;;;;;;5119992;27;20441;-65
2022/11/29 12:45:29;;;;;;;1999.90;999.90;;;6.70;99.90;;;;;;5128635;27;20428;-68
2022/11/29 12:48:07;;;;;;;1999.90;999.90;;;6.90;99.90;;;;;;5129545;27;20443;-68
2022/11/29 12:50:44;;;;;;;1999.90;999.90;;;6.90;99.90;;;;;;5099012;27;20816;-67